createdAt,value
2019-02-27T00:01:55.787Z,102606.72
2019-02-27T00:04:26.152Z,102607.12
2019-02-27T00:06:56.101Z,102602.89
2019-02-27T00:09:26.113Z,102601.66
2019-02-27T00:11:56.120Z,102596.21
2019-02-27T00:14:26.099Z,102602.22
2019-02-27T00:16:56.066Z,102594.33
2019-02-27T00:19:26.016Z,102591.53
2019-02-27T00:21:55.990Z,102596.46
2019-02-27T00:24:27.079Z,102589.75
2019-02-27T00:26:57.618Z,102589.63
2019-02-27T00:29:28.979Z,102583.52
2019-02-27T00:31:59.219Z,102579.11
2019-02-27T00:34:33.008Z,102576.08
2019-02-27T00:37:02.565Z,102576.23
2019-02-27T00:39:32.531Z,102572.45
2019-02-27T00:42:02.533Z,102565.98
2019-02-27T00:44:34.773Z,102566.95
2019-02-27T00:47:04.467Z,102559.06
2019-02-27T00:49:34.511Z,102561.64
2019-02-27T00:52:04.470Z,102564.97
2019-02-27T00:54:34.440Z,102561.28
2019-02-27T00:57:04.471Z,102558.08
2019-02-27T00:59:34.451Z,102561.73
2019-02-27T01:02:04.758Z,102561.73
2019-02-27T01:04:35.662Z,102565.16
2019-02-27T01:07:05.710Z,102556.42
2019-02-27T01:09:39.038Z,102560.88
2019-02-27T01:12:07.314Z,102561.43
2019-02-27T01:14:38.738Z,102552.89
2019-02-27T01:17:08.704Z,102558.50
2019-02-27T01:19:39.368Z,102551.45
2019-02-27T01:22:10.491Z,102553.58
2019-02-27T01:24:40.445Z,102550.86
2019-02-27T01:27:10.755Z,102548.09
2019-02-27T01:29:41.104Z,102549.75
2019-02-27T01:32:11.089Z,102547.42
2019-02-27T01:34:44.296Z,102544.80
2019-02-27T01:37:12.632Z,102537.23
2019-02-27T01:39:44.128Z,102537.33
2019-02-27T01:42:14.797Z,102532.70
2019-02-27T01:44:46.686Z,102523.73
2019-02-27T01:47:16.498Z,102517.81
2019-02-27T01:49:48.883Z,102516.43
2019-02-27T01:52:18.993Z,102519.70
2019-02-27T01:54:49.575Z,102512.84
2019-02-27T01:57:19.864Z,102513.88
2019-02-27T01:59:50.967Z,102515.34
2019-02-27T02:02:21.289Z,102511.75
2019-02-27T02:04:53.714Z,102510.68
2019-02-27T02:07:24.143Z,102506.50
2019-02-27T02:09:55.030Z,102500.57
2019-02-27T02:12:29.843Z,102502.69
2019-02-27T02:15:17.352Z,102496.01
2019-02-27T02:18:45.717Z,102494.59
2019-02-27T02:21:52.646Z,102482.28
2019-02-27T02:25:18.898Z,102472.77
2019-02-27T02:28:35.271Z,102464.69
2019-02-27T02:31:40.775Z,102465.50
2019-02-27T02:34:46.885Z,102461.30
2019-02-27T02:37:55.193Z,102457.20
2019-02-27T02:40:55.215Z,102457.03
2019-02-27T02:44:01.157Z,102452.95
2019-02-27T02:47:27.687Z,102448.49
2019-02-27T02:50:37.347Z,102444.44
2019-02-27T02:54:01.710Z,102443.75
2019-02-27T02:56:42.931Z,102432.83
2019-02-27T03:00:12.316Z,102431.91
2019-02-27T03:03:12.271Z,102435.55
2019-02-27T03:06:44.579Z,102435.50
2019-02-27T03:10:08.321Z,102431.27
2019-02-27T03:13:09.783Z,102429.45
2019-02-27T03:16:09.811Z,102424.55
2019-02-27T03:18:52.209Z,102425.91
2019-02-27T03:22:04.535Z,102421.91
2019-02-27T03:25:04.221Z,102415.70
2019-02-27T03:28:28.592Z,102412.23
2019-02-27T03:31:39.627Z,102410.13
2019-02-27T03:34:50.987Z,102403.75
2019-02-27T03:38:06.989Z,102404.06
2019-02-27T03:41:27.372Z,102407.34
2019-02-27T03:44:09.453Z,102400.49
2019-02-27T03:47:08.985Z,102393.85
2019-02-27T03:50:17.154Z,102401.86
2019-02-27T03:53:23.677Z,102409.92
2019-02-27T03:56:53.068Z,102409.11
2019-02-27T03:59:49.187Z,102398.38
2019-02-27T04:03:02.249Z,102393.03
2019-02-27T04:06:08.697Z,102397.06
2019-02-27T04:08:56.744Z,102387.89
2019-02-27T04:11:27.165Z,102386.33
2019-02-27T04:14:03.290Z,102384.67
2019-02-27T04:16:30.758Z,102387.94
2019-02-27T04:19:04.614Z,102380.80
2019-02-27T04:21:32.458Z,102386.04
2019-02-27T04:24:02.329Z,102382.80
2019-02-27T04:26:32.346Z,102383.41
2019-02-27T04:29:12.040Z,102378.36
2019-02-27T04:31:42.291Z,102381.94
2019-02-27T04:34:12.162Z,102381.64
2019-02-27T04:36:42.049Z,102378.16
2019-02-27T04:39:11.995Z,102378.32
2019-02-27T04:41:42.186Z,102371.05
2019-02-27T04:44:12.146Z,102369.94
2019-02-27T04:46:42.139Z,102370.04
2019-02-27T04:49:12.015Z,102375.69
2019-02-27T04:51:42.155Z,102376.03
2019-02-27T04:54:12.032Z,102371.70
2019-02-27T04:56:41.907Z,102367.88
2019-02-27T04:59:11.800Z,102371.09
2019-02-27T05:01:42.421Z,102368.20
2019-02-27T05:04:12.240Z,102368.30
2019-02-27T05:06:42.192Z,102370.17
2019-02-27T05:09:13.219Z,102365.89
2019-02-27T05:11:47.593Z,102363.57
2019-02-27T05:14:15.918Z,102365.03
2019-02-27T05:16:47.328Z,102365.16
2019-02-27T05:19:17.526Z,102367.47
2019-02-27T05:21:47.512Z,102357.27
2019-02-27T05:24:19.431Z,102361.95
2019-02-27T05:26:49.372Z,102361.15
2019-02-27T05:29:19.328Z,102353.45
2019-02-27T05:31:50.152Z,102353.45
2019-02-27T05:34:20.776Z,102346.14
2019-02-27T05:36:50.735Z,102344.28
2019-02-27T05:39:22.275Z,102345.44
2019-02-27T05:41:52.543Z,102347.52
2019-02-27T05:44:23.054Z,102344.38
2019-02-27T05:46:52.946Z,102350.80
2019-02-27T05:49:26.601Z,102355.75
2019-02-27T05:51:54.535Z,102358.92
2019-02-27T05:54:24.871Z,102354.27
2019-02-27T05:56:54.822Z,102357.71
2019-02-27T05:59:29.140Z,102352.28
2019-02-27T06:01:58.308Z,102340.14
2019-02-27T06:04:28.301Z,102346.96
2019-02-27T06:06:58.103Z,102341.38
2019-02-27T06:09:28.056Z,102337.84
2019-02-27T06:11:57.938Z,102342.63
2019-02-27T06:14:27.903Z,102346.41
2019-02-27T06:17:00.117Z,102351.34
2019-02-27T06:19:33.321Z,102346.30
2019-02-27T06:22:01.654Z,102345.84
2019-02-27T06:24:31.571Z,102347.52
2019-02-27T06:27:06.073Z,102346.25
2019-02-27T06:29:33.170Z,102342.63
2019-02-27T06:32:03.198Z,102346.69
2019-02-27T06:34:33.298Z,102342.20
2019-02-27T06:37:03.273Z,102343.31
2019-02-27T06:39:34.461Z,102339.70
2019-02-27T06:42:05.040Z,102337.19
2019-02-27T06:44:36.623Z,102333.47
2019-02-27T06:47:07.257Z,102334.63
2019-02-27T06:49:38.214Z,102330.92
2019-02-27T06:52:09.214Z,102321.19
2019-02-27T06:54:39.902Z,102328.05
2019-02-27T06:57:10.694Z,102334.59
2019-02-27T06:59:41.706Z,102323.07
2019-02-27T07:02:11.908Z,102323.83
2019-02-27T07:04:42.138Z,102315.47
2019-02-27T07:07:12.417Z,102329.82
2019-02-27T07:09:45.926Z,102317.63
2019-02-27T07:12:15.864Z,102314.51
2019-02-27T07:14:45.829Z,102315.81
2019-02-27T07:17:15.709Z,102315.41
2019-02-27T07:19:47.439Z,102319.75
2019-02-27T07:22:18.636Z,102315.31
2019-02-27T07:24:48.602Z,102313.47
2019-02-27T07:27:18.579Z,102310.84
2019-02-27T07:29:48.542Z,102309.03
2019-02-27T07:32:18.450Z,102307.61
2019-02-27T07:34:49.783Z,102311.89
2019-02-27T07:37:20.751Z,102309.22
2019-02-27T07:39:51.388Z,102315.22
2019-02-27T07:42:21.329Z,102313.77
2019-02-27T07:44:51.558Z,102310.98
2019-02-27T07:47:21.819Z,102315.67
2019-02-27T07:49:51.777Z,102314.71
2019-02-27T07:52:22.020Z,102321.42
2019-02-27T07:54:51.984Z,102323.88
2019-02-27T07:57:23.229Z,102324.52
2019-02-27T07:59:53.131Z,102322.95
2019-02-27T08:02:23.341Z,102320.57
2019-02-27T08:04:54.663Z,102323.74
2019-02-27T08:07:25.575Z,102313.83
2019-02-27T08:09:55.481Z,102317.22
2019-02-27T08:12:25.415Z,102314.56
2019-02-27T08:14:55.373Z,102311.50
2019-02-27T08:17:25.367Z,102307.61
2019-02-27T08:19:55.266Z,102304.20
2019-02-27T08:22:25.296Z,102309.16
2019-02-27T08:24:55.566Z,102308.42
2019-02-27T08:27:25.577Z,102305.03
2019-02-27T08:29:55.529Z,102304.63
2019-02-27T08:32:25.501Z,102307.25
2019-02-27T08:34:55.420Z,102304.77
2019-02-27T08:37:25.381Z,102306.00
2019-02-27T08:39:55.311Z,102308.64
2019-02-27T08:42:25.274Z,102306.05
2019-02-27T08:44:55.168Z,102306.48
2019-02-27T08:47:25.124Z,102306.19
2019-02-27T08:49:58.076Z,102307.47
2019-02-27T08:52:26.832Z,102301.81
2019-02-27T08:54:56.732Z,102298.34
2019-02-27T08:57:26.691Z,102296.30
2019-02-27T08:59:56.997Z,102290.20
2019-02-27T09:02:29.231Z,102292.48
2019-02-27T09:04:58.898Z,102284.60
2019-02-27T09:07:28.847Z,102288.20
2019-02-27T09:09:58.807Z,102285.18
2019-02-27T09:12:28.616Z,102278.24
2019-02-27T09:14:58.476Z,102276.61
2019-02-27T09:17:28.466Z,102278.02
2019-02-27T09:19:58.682Z,102276.77
2019-02-27T09:22:28.629Z,102278.19
2019-02-27T09:24:59.414Z,102275.08
2019-02-27T09:27:29.724Z,102265.95
2019-02-27T09:29:59.893Z,102264.22
2019-02-27T09:32:29.856Z,102263.30
2019-02-27T09:35:00.288Z,102253.20
2019-02-27T09:37:31.618Z,102246.97
2019-02-27T09:40:04.403Z,102243.09
2019-02-27T09:42:33.279Z,102248.17
2019-02-27T09:45:03.256Z,102247.80
2019-02-27T09:47:33.589Z,102237.21
2019-02-27T09:50:03.559Z,102244.99
2019-02-27T09:52:35.592Z,102242.80
2019-02-27T09:55:06.258Z,102238.71
2019-02-27T09:57:36.777Z,102235.50
2019-02-27T10:00:25.933Z,102237.27
2019-02-27T10:02:55.368Z,102228.95
2019-02-27T10:05:25.421Z,102229.95
2019-02-27T10:07:56.939Z,102228.78
2019-02-27T10:10:27.195Z,102221.56
2019-02-27T10:12:57.227Z,102222.34
2019-02-27T10:15:27.200Z,102226.16
2019-02-27T10:17:57.449Z,102222.58
2019-02-27T10:20:27.433Z,102220.30
2019-02-27T10:22:58.510Z,102218.95
2019-02-27T10:25:28.472Z,102217.60
2019-02-27T10:28:03.457Z,102211.28
2019-02-27T10:30:30.138Z,102202.71
2019-02-27T10:33:00.091Z,102201.32
2019-02-27T10:35:30.173Z,102198.63
2019-02-27T10:38:00.105Z,102204.59
2019-02-27T10:40:30.206Z,102197.74
2019-02-27T10:43:00.160Z,102198.22
2019-02-27T10:45:30.125Z,102196.21
2019-02-27T10:48:00.581Z,102190.52
2019-02-27T10:50:30.569Z,102197.03
2019-02-27T10:53:02.352Z,102192.55
2019-02-27T10:55:32.624Z,102187.34
2019-02-27T10:58:02.928Z,102188.05
2019-02-27T11:00:33.009Z,102186.34
2019-02-27T11:03:03.571Z,102179.86
2019-02-27T11:05:34.547Z,102176.33
2019-02-27T11:08:06.761Z,102173.13
2019-02-27T11:10:37.117Z,102178.63
2019-02-27T11:13:07.545Z,102168.39
2019-02-27T11:15:41.074Z,102157.66
2019-02-27T11:18:10.277Z,102155.50
2019-02-27T11:20:40.259Z,102147.41
2019-02-27T11:23:10.165Z,102147.59
2019-02-27T11:25:40.162Z,102139.63
2019-02-27T11:28:10.169Z,102138.41
2019-02-27T11:30:40.153Z,102130.77
2019-02-27T11:33:10.432Z,102130.27
2019-02-27T11:35:40.451Z,102118.61
2019-02-27T11:38:10.714Z,102117.61
2019-02-27T11:40:42.601Z,102106.22
2019-02-27T11:43:12.367Z,102104.11
2019-02-27T11:45:42.338Z,102094.04
2019-02-27T11:48:12.609Z,102092.31
2019-02-27T11:50:42.887Z,102091.17
2019-02-27T11:53:12.862Z,102084.59
2019-02-27T11:55:43.161Z,102082.88
2019-02-27T11:58:13.139Z,102079.80
2019-02-27T12:00:43.155Z,102081.95
2019-02-27T12:03:13.068Z,102071.78
2019-02-27T12:05:43.078Z,102065.73
2019-02-27T12:08:12.956Z,102057.02
2019-02-27T12:10:42.853Z,102054.70
2019-02-27T12:13:13.471Z,102053.83
2019-02-27T12:15:44.223Z,102050.26
2019-02-27T12:18:14.904Z,102048.05
2019-02-27T12:20:44.962Z,102047.34
2019-02-27T12:23:15.381Z,102037.13
2019-02-27T12:25:45.393Z,102032.79
2019-02-27T12:28:18.129Z,102029.33
2019-02-27T12:30:47.368Z,102029.34
2019-02-27T12:33:17.354Z,102020.97
2019-02-27T12:35:47.311Z,102016.48
2019-02-27T12:38:17.346Z,102013.67
2019-02-27T12:40:47.656Z,102008.12
2019-02-27T12:43:18.557Z,101995.39
2019-02-27T12:45:48.696Z,101985.92
2019-02-27T12:48:18.661Z,101985.57
2019-02-27T12:50:48.648Z,101987.48
2019-02-27T12:53:21.510Z,101976.34
2019-02-27T12:55:50.332Z,101975.71
2019-02-27T12:58:20.834Z,101965.43
2019-02-27T13:00:50.913Z,101970.14
2019-02-27T13:03:21.193Z,101958.87
2019-02-27T13:05:51.162Z,101962.78
2019-02-27T13:08:23.280Z,101953.22
2019-02-27T13:10:53.235Z,101952.80
2019-02-27T13:13:25.832Z,101947.93
2019-02-27T13:15:54.969Z,101946.98
2019-02-27T13:18:24.990Z,101942.34
2019-02-27T13:20:55.309Z,101942.46
2019-02-27T13:23:25.277Z,101933.82
2019-02-27T13:25:57.506Z,101927.94
2019-02-27T13:28:26.922Z,101913.84
2019-02-27T13:30:56.946Z,101913.84
2019-02-27T13:33:26.854Z,101904.41
2019-02-27T13:35:59.638Z,101893.31
2019-02-27T13:38:28.545Z,101881.51
2019-02-27T13:40:58.550Z,101881.51
2019-02-27T13:43:28.826Z,101874.25
2019-02-27T13:45:58.846Z,101874.25
2019-02-27T13:48:28.874Z,101880.44
2019-02-27T13:50:59.369Z,101875.98
2019-02-27T13:53:31.149Z,101874.39
2019-02-27T13:56:01.153Z,101869.88
2019-02-27T13:58:35.743Z,101868.70
2019-02-27T14:01:03.040Z,101848.88
2019-02-27T14:03:33.272Z,101859.45
2019-02-27T14:06:06.213Z,101854.03
2019-02-27T14:08:35.632Z,101847.87
2019-02-27T14:11:05.597Z,101845.20
2019-02-27T14:13:35.403Z,101839.51
2019-02-27T14:16:05.404Z,101821.34
2019-02-27T14:18:35.551Z,101832.30
2019-02-27T14:21:05.538Z,101825.09
2019-02-27T14:23:35.968Z,101825.75
2019-02-27T14:26:08.473Z,101824.34
2019-02-27T14:28:37.604Z,101817.84
2019-02-27T14:31:09.418Z,101813.13
2019-02-27T14:33:39.236Z,101803.27
2019-02-27T14:36:09.320Z,101801.99
2019-02-27T14:38:39.266Z,101801.61
2019-02-27T14:41:11.162Z,101792.06
2019-02-27T14:43:41.132Z,101791.48
2019-02-27T14:46:12.263Z,101787.13
2019-02-27T14:48:42.797Z,101785.47
2019-02-27T14:51:12.776Z,101783.64
2019-02-27T14:53:43.968Z,101782.19
2019-02-27T14:56:13.913Z,101778.97
2019-02-27T14:58:43.900Z,101774.38
2019-02-27T15:01:14.447Z,101767.48
2019-02-27T15:03:45.539Z,101763.48
2019-02-27T15:06:15.923Z,101762.30
2019-02-27T15:08:57.474Z,101762.12
2019-02-27T15:11:19.294Z,101751.16
2019-02-27T15:13:49.293Z,101755.06
2019-02-27T15:16:19.527Z,101748.71
2019-02-27T15:18:49.466Z,101747.09
2019-02-27T15:21:20.482Z,101740.10
2019-02-27T15:23:50.883Z,101745.13
2019-02-27T15:26:20.866Z,101738.55
2019-02-27T15:28:50.856Z,101737.12
2019-02-27T15:31:21.311Z,101739.42
2019-02-27T15:33:53.958Z,101735.13
2019-02-27T15:36:29.329Z,101726.70
2019-02-27T15:38:56.001Z,101712.02
2019-02-27T15:41:25.990Z,101706.30
2019-02-27T15:44:00.202Z,101706.30
2019-02-27T15:46:27.728Z,101708.30
2019-02-27T15:48:57.998Z,101702.52
2019-02-27T15:51:32.078Z,101695.33
2019-02-27T15:53:59.994Z,101695.33
2019-02-27T15:56:29.998Z,101691.58
2019-02-27T15:59:04.905Z,101687.87
2019-02-27T16:01:33.074Z,101684.37
2019-02-27T16:04:03.215Z,101683.00
2019-02-27T16:06:33.471Z,101682.50
2019-02-27T16:09:05.986Z,101679.88
2019-02-27T16:11:37.555Z,101680.56
2019-02-27T16:14:10.143Z,101669.33
2019-02-27T16:16:39.218Z,101662.66
2019-02-27T16:19:10.757Z,101661.58
2019-02-27T16:21:41.249Z,101660.69
2019-02-27T16:24:11.224Z,101655.31
2019-02-27T16:26:41.190Z,101657.75
2019-02-27T16:29:11.179Z,101654.25
2019-02-27T16:31:41.493Z,101651.03
2019-02-27T16:34:11.515Z,101648.55
2019-02-27T16:36:41.444Z,101642.25
2019-02-27T16:39:11.434Z,101641.49
2019-02-27T16:41:41.472Z,101634.50
2019-02-27T16:44:11.453Z,101638.19
2019-02-27T16:46:44.604Z,101632.90
2019-02-27T16:49:13.083Z,101633.64
2019-02-27T16:51:43.264Z,101637.00
2019-02-27T16:54:13.769Z,101637.66
2019-02-27T16:56:47.718Z,101637.72
2019-02-27T16:59:17.139Z,101627.40
2019-02-27T17:01:47.449Z,101625.20
2019-02-27T17:04:17.985Z,101627.84
2019-02-27T17:06:49.178Z,101621.39
2019-02-27T17:09:19.781Z,101623.27
2019-02-27T17:11:49.731Z,101622.13
2019-02-27T17:14:21.211Z,101617.48
2019-02-27T17:16:51.278Z,101614.84
2019-02-27T17:19:21.159Z,101617.91
2019-02-27T17:21:51.157Z,101619.13
2019-02-27T17:24:22.061Z,101609.96
2019-02-27T17:26:52.193Z,101610.11
2019-02-27T17:29:22.827Z,101602.06
2019-02-27T17:31:55.792Z,101602.30
2019-02-27T17:34:26.417Z,101594.00
2019-02-27T17:36:56.738Z,101594.48
2019-02-27T17:39:30.386Z,101597.36
2019-02-27T17:41:58.837Z,101601.72
2019-02-27T17:44:29.149Z,101600.40
2019-02-27T17:46:59.114Z,101602.20
2019-02-27T17:49:29.149Z,101592.55
2019-02-27T17:52:00.250Z,101597.61
2019-02-27T17:54:31.514Z,101593.98
2019-02-27T17:57:02.161Z,101602.64
2019-02-27T17:59:32.048Z,101594.45
2019-02-27T18:02:02.365Z,101597.66
2019-02-27T18:04:34.233Z,101590.41
2019-02-27T18:07:06.406Z,101586.27
2019-02-27T18:09:36.205Z,101588.30
2019-02-27T18:12:06.219Z,101583.56
2019-02-27T18:14:36.124Z,101588.05
2019-02-27T18:17:06.713Z,101581.42
2019-02-27T18:19:37.007Z,101579.48
2019-02-27T18:22:06.987Z,101579.84
2019-02-27T18:24:37.261Z,101579.11
2019-02-27T18:27:07.257Z,101577.09
2019-02-27T18:29:38.326Z,101583.89
2019-02-27T18:32:08.357Z,101573.13
2019-02-27T18:34:39.618Z,101574.88
2019-02-27T18:37:09.597Z,101569.81
2019-02-27T18:39:41.387Z,101563.34
2019-02-27T18:42:12.705Z,101568.05
2019-02-27T18:44:43.939Z,101558.05
2019-02-27T18:47:14.481Z,101565.32
2019-02-27T18:49:49.093Z,101557.92
2019-02-27T18:52:21.361Z,101556.55
2019-02-27T18:54:49.856Z,101554.95
2019-02-27T18:57:20.146Z,101551.78
2019-02-27T18:59:50.114Z,101553.89
2019-02-27T19:02:20.750Z,101547.29
2019-02-27T19:04:50.808Z,101544.06
2019-02-27T19:07:22.899Z,101542.52
2019-02-27T19:09:52.859Z,101542.73
2019-02-27T19:12:28.427Z,101538.98
2019-02-27T19:14:54.625Z,101541.52
2019-02-27T19:17:29.049Z,101534.66
2019-02-27T19:19:56.542Z,101535.77
2019-02-27T19:22:26.632Z,101536.02
2019-02-27T19:24:57.465Z,101539.25
2019-02-27T19:27:30.391Z,101538.41
2019-02-27T19:30:00.399Z,101529.63
2019-02-27T19:32:30.351Z,101536.34
2019-02-27T19:35:00.702Z,101530.45
2019-02-27T19:37:30.749Z,101526.67
2019-02-27T19:40:01.080Z,101522.55
2019-02-27T19:42:32.880Z,101523.83
2019-02-27T19:45:04.226Z,101515.30
2019-02-27T19:47:34.918Z,101516.25
2019-02-27T19:50:08.543Z,101511.81
2019-02-27T19:52:37.828Z,101511.20
2019-02-27T19:55:08.012Z,101504.11
2019-02-27T19:57:39.317Z,101501.61
2019-02-27T20:00:10.613Z,101503.14
2019-02-27T20:02:42.216Z,101488.83
2019-02-27T20:05:11.707Z,101485.44
2019-02-27T20:07:41.700Z,101482.43
2019-02-27T20:10:12.377Z,101477.63
2019-02-27T20:12:42.439Z,101475.45
2019-02-27T20:15:13.443Z,101476.04
2019-02-27T20:17:43.643Z,101471.70
2019-02-27T20:20:14.802Z,101468.70
2019-02-27T20:22:44.849Z,101464.39
2019-02-27T20:25:15.158Z,101465.93
2019-02-27T20:27:45.142Z,101463.87
2019-02-27T20:30:17.276Z,101466.36
2019-02-27T20:32:47.650Z,101470.34
2019-02-27T20:35:20.768Z,101465.30
2019-02-27T20:37:49.337Z,101468.64
2019-02-27T20:40:19.801Z,101467.59
2019-02-27T20:42:53.797Z,101471.38
2019-02-27T20:45:21.890Z,101473.48
2019-02-27T20:47:57.846Z,101469.80
2019-02-27T20:50:34.966Z,101461.70
2019-02-27T20:52:59.546Z,101460.59
2019-02-27T20:55:30.942Z,101456.30
2019-02-27T20:58:02.785Z,101466.98
2019-02-27T21:00:35.962Z,101460.39
2019-02-27T21:03:04.896Z,101459.78
2019-02-27T21:05:34.847Z,101458.94
2019-02-27T21:08:04.814Z,101459.41
2019-02-27T21:10:34.739Z,101457.81
2019-02-27T21:13:04.721Z,101458.48
2019-02-27T21:15:34.711Z,101463.12
2019-02-27T21:18:06.377Z,101460.56
2019-02-27T21:20:36.278Z,101464.94
2019-02-27T21:23:06.349Z,101465.61
2019-02-27T21:25:36.316Z,101468.52
2019-02-27T21:28:07.618Z,101467.20
2019-02-27T21:30:38.925Z,101466.25
2019-02-27T21:33:11.175Z,101463.17
2019-02-27T21:35:40.929Z,101460.50
2019-02-27T21:38:10.893Z,101460.45
2019-02-27T21:40:40.834Z,101469.02
2019-02-27T21:43:10.795Z,101467.23
2019-02-27T21:45:40.756Z,101460.92
2019-02-27T21:48:10.703Z,101461.30
2019-02-27T21:50:40.649Z,101464.49
2019-02-27T21:53:10.908Z,101465.83
2019-02-27T21:55:40.866Z,101464.70
2019-02-27T21:58:20.011Z,101458.95
2019-02-27T22:00:44.953Z,101465.64
2019-02-27T22:03:14.822Z,101461.16
2019-02-27T22:05:45.085Z,101464.74
2019-02-27T22:08:14.995Z,101469.48
2019-02-27T22:10:44.967Z,101468.54
2019-02-27T22:13:15.270Z,101467.88
2019-02-27T22:15:45.464Z,101469.39
2019-02-27T22:18:15.339Z,101466.98
2019-02-27T22:20:45.289Z,101460.11
2019-02-27T22:23:15.578Z,101463.31
2019-02-27T22:25:46.279Z,101465.56
2019-02-27T22:28:17.249Z,101460.02
2019-02-27T22:30:48.114Z,101454.09
2019-02-27T22:33:22.099Z,101457.45
2019-02-27T22:35:50.249Z,101455.88
2019-02-27T22:38:20.200Z,101454.09
2019-02-27T22:40:50.140Z,101453.93
2019-02-27T22:43:21.977Z,101456.18
2019-02-27T22:45:51.685Z,101456.94
2019-02-27T22:48:22.076Z,101449.61
2019-02-27T22:50:52.068Z,101447.03
2019-02-27T22:53:22.069Z,101446.47
2019-02-27T22:55:52.389Z,101451.92
2019-02-27T22:58:22.289Z,101450.36
2019-02-27T23:01:04.874Z,101453.93
2019-02-27T23:03:44.910Z,101446.03
2019-02-27T23:06:14.979Z,101447.25
2019-02-27T23:08:45.620Z,101444.08
2019-02-27T23:11:16.247Z,101444.84
2019-02-27T23:13:48.396Z,101440.70
2019-02-27T23:16:19.355Z,101435.34
2019-02-27T23:18:50.001Z,101440.14
2019-02-27T23:21:19.971Z,101437.22
2019-02-27T23:23:51.912Z,101434.21
2019-02-27T23:26:22.170Z,101431.38
2019-02-27T23:28:52.045Z,101434.41
2019-02-27T23:31:23.478Z,101438.92
2019-02-27T23:33:53.906Z,101431.88
2019-02-27T23:36:23.811Z,101436.47
2019-02-27T23:38:53.772Z,101436.17
2019-02-27T23:41:23.922Z,101422.18
2019-02-27T23:43:53.853Z,101427.45
2019-02-27T23:46:23.776Z,101424.05
2019-02-27T23:48:54.088Z,101424.34
2019-02-27T23:51:24.102Z,101420.58
2019-02-27T23:53:55.482Z,101418.23
2019-02-27T23:56:25.478Z,101424.42
2019-02-27T23:58:55.412Z,101416.55
